Time;durP1;ratioP1;P1;durP2;ratioP2;P2;SDS_P1;SDS_P2;PMS_P1;PMS_P2;Temp;Humidity;BMP_temperature;BMP_pressure;BME280_temperature;BME280_humidity;BME280_pressure;Samples;Min_cycle;Max_cycle;Signal;HPM_P1;HPM_P2
2021/10/07 00:00:21;;;;;;;8.60;5.18;;;;;;;;;;4847606;29;20201;-93
2021/10/07 00:03:35;;;;;;;11.57;5.25;;;;;;;;;;4830509;29;20231;-91
2021/10/07 00:06:46;;;;;;;8.00;5.43;;;;;;;;;;4849469;29;20315;-90
2021/10/07 00:09:58;;;;;;;12.18;5.95;;;;;;;;;;4846431;29;20229;-91
2021/10/07 00:13:10;;;;;;;7.30;5.10;;;;;;;;;;4832694;29;20195;-89
2021/10/07 00:16:23;;;;;;;9.98;6.28;;;;;;;;;;4832025;29;20223;-91
2021/10/07 00:19:36;;;;;;;11.23;6.72;;;;;;;;;;4851629;29;20695;-91
2021/10/07 00:22:48;;;;;;;10.38;6.07;;;;;;;;;;4856164;29;20198;-90
2021/10/07 00:26:00;;;;;;;12.23;7.03;;;;;;;;;;4848053;29;20230;-91
2021/10/07 00:32:43;;;;;;;12.60;7.03;;;;;;;;;;4836908;29;20831;-91
2021/10/07 00:36:09;;;;;;;12.85;7.10;;;;;;;;;;4836978;29;20207;-91
2021/10/07 00:39:21;;;;;;;15.85;7.32;;;;;;;;;;4835822;29;20227;-90
2021/10/07 00:42:33;;;;;;;15.48;6.70;;;;;;;;;;4853865;29;20206;-91
2021/10/07 00:45:50;;;;;;;13.00;7.10;;;;;;;;;;4836805;29;20187;-91
2021/10/07 00:49:02;;;;;;;11.18;7.40;;;;;;;;;;4841745;29;20203;-93
2021/10/07 00:52:17;;;;;;;13.27;7.20;;;;;;;;;;4855457;29;20202;-91
2021/10/07 00:55:29;;;;;;;11.38;7.18;;;;;;;;;;4841868;29;20274;-91
2021/10/07 00:58:41;;;;;;;11.75;6.97;;;;;;;;;;4835284;29;20234;-91
2021/10/07 01:01:53;;;;;;;11.65;7.20;;;;;;;;;;4845789;29;20206;-90
2021/10/07 01:05:06;;;;;;;17.40;8.35;;;;;;;;;;4855161;29;20198;-90
2021/10/07 01:08:22;;;;;;;13.70;8.02;;;;;;;;;;4837204;29;20288;-92
2021/10/07 01:11:33;;;;;;;12.85;8.05;;;;;;;;;;4835791;29;20204;-90
2021/10/07 01:14:47;;;;;;;16.20;7.43;;;;;;;;;;4836413;29;20190;-91
2021/10/07 01:17:58;;;;;;;16.20;7.50;;;;;;;;;;4849590;29;20219;-91
2021/10/07 01:21:12;;;;;;;14.82;7.38;;;;;;;;;;4855096;29;20293;-91
2021/10/07 01:24:24;;;;;;;16.77;7.95;;;;;;;;;;4854509;29;20204;-91
2021/10/07 01:27:38;;;;;;;14.85;8.13;;;;;;;;;;4849100;29;20227;-90
2021/10/07 01:30:50;;;;;;;12.40;7.88;;;;;;;;;;4841271;29;20246;-90
2021/10/07 01:34:02;;;;;;;20.27;8.63;;;;;;;;;;4854368;29;20627;-91
2021/10/07 01:37:15;;;;;;;17.90;8.30;;;;;;;;;;4835598;29;20248;-92
2021/10/07 01:40:27;;;;;;;20.13;9.40;;;;;;;;;;4835560;29;20542;-91
2021/10/07 01:43:39;;;;;;;16.30;8.52;;;;;;;;;;4836421;29;20194;-91
2021/10/07 01:46:51;;;;;;;16.95;9.52;;;;;;;;;;4850056;29;20226;-90
2021/10/07 01:50:03;;;;;;;16.50;9.20;;;;;;;;;;4853851;29;20199;-91
2021/10/07 01:53:17;;;;;;;17.75;9.32;;;;;;;;;;4850853;29;20255;-90
2021/10/07 01:57:06;;;;;;;14.55;8.85;;;;;;;;;;4853433;29;20222;-90
2021/10/07 02:00:18;;;;;;;20.67;9.80;;;;;;;;;;4839108;29;20326;-91
2021/10/07 02:03:30;;;;;;;16.85;9.23;;;;;;;;;;4852096;29;20210;-91
2021/10/07 02:06:42;;;;;;;20.38;9.48;;;;;;;;;;4835544;29;20226;-89
2021/10/07 02:09:56;;;;;;;19.75;9.95;;;;;;;;;;4843501;29;20215;-88
2021/10/07 02:13:07;;;;;;;18.30;9.65;;;;;;;;;;4844868;29;20228;-90
2021/10/07 02:16:22;;;;;;;22.33;10.20;;;;;;;;;;4843508;29;20206;-90
2021/10/07 02:19:36;;;;;;;17.73;10.02;;;;;;;;;;4838495;29;20210;-89
2021/10/07 02:22:48;;;;;;;17.40;9.82;;;;;;;;;;4835548;29;20211;-92
2021/10/07 02:26:00;;;;;;;17.55;9.88;;;;;;;;;;4854767;29;20195;-89
2021/10/07 02:29:12;;;;;;;17.83;9.48;;;;;;;;;;4854269;29;20259;-90
2021/10/07 02:32:24;;;;;;;15.88;8.95;;;;;;;;;;4852224;29;20206;-90
2021/10/07 02:35:35;;;;;;;15.20;8.73;;;;;;;;;;4844722;29;20195;-90
2021/10/07 02:38:48;;;;;;;17.25;9.18;;;;;;;;;;4849482;29;20215;-90
2021/10/07 02:42:01;;;;;;;14.77;9.48;;;;;;;;;;4835693;29;20286;-92
2021/10/07 02:45:14;;;;;;;18.50;9.93;;;;;;;;;;4837756;29;20227;-90
2021/10/07 02:48:25;;;;;;;19.38;10.35;;;;;;;;;;4834052;29;20234;-90
2021/10/07 02:51:37;;;;;;;15.77;9.90;;;;;;;;;;4836179;29;20275;-89
2021/10/07 02:54:49;;;;;;;18.25;9.55;;;;;;;;;;4834425;29;20211;-90
2021/10/07 03:02:03;;;;;;;15.60;9.80;;;;;;;;;;4834778;29;20199;-90
2021/10/07 03:05:14;;;;;;;18.05;10.18;;;;;;;;;;4841906;29;20678;-90
2021/10/07 03:08:28;;;;;;;20.58;11.73;;;;;;;;;;4852172;29;20693;-91
2021/10/07 03:11:40;;;;;;;20.33;11.60;;;;;;;;;;4851501;29;20187;-90
2021/10/07 03:14:52;;;;;;;19.83;10.88;;;;;;;;;;4851852;29;20218;-90
2021/10/07 03:18:05;;;;;;;21.95;12.40;;;;;;;;;;4837536;29;20281;-90
2021/10/07 03:21:45;;;;;;;24.13;12.15;;;;;;;;;;4835463;29;20272;-91
2021/10/07 03:24:57;;;;;;;21.70;11.88;;;;;;;;;;4852171;29;20198;-92
2021/10/07 03:28:09;;;;;;;19.08;10.95;;;;;;;;;;4847762;29;20326;-89
2021/10/07 03:31:21;;;;;;;19.85;11.25;;;;;;;;;;4832482;29;20199;-90
2021/10/07 03:34:34;;;;;;;20.42;11.60;;;;;;;;;;4837881;29;20198;-91
2021/10/07 03:37:46;;;;;;;19.85;11.25;;;;;;;;;;4834262;29;20325;-89
2021/10/07 03:40:59;;;;;;;20.65;11.80;;;;;;;;;;4845951;29;20214;-90
2021/10/07 03:44:11;;;;;;;18.90;10.50;;;;;;;;;;4851208;29;20202;-90
2021/10/07 03:47:23;;;;;;;21.67;11.60;;;;;;;;;;4851212;29;20223;-90
2021/10/07 03:50:36;;;;;;;18.50;11.30;;;;;;;;;;4851234;29;20208;-90
2021/10/07 03:53:48;;;;;;;18.63;10.60;;;;;;;;;;4851718;29;20267;-91
2021/10/07 03:57:00;;;;;;;20.33;10.90;;;;;;;;;;4854295;29;20629;-91
2021/10/07 04:00:12;;;;;;;19.08;10.77;;;;;;;;;;4835807;29;20328;-89
2021/10/07 04:04:02;;;;;;;17.60;10.45;;;;;;;;;;4846030;29;20670;-90
2021/10/07 04:07:19;;;;;;;18.70;10.25;;;;;;;;;;4854701;29;20267;-91
2021/10/07 04:10:35;;;;;;;19.80;9.73;;;;;;;;;;4854666;29;20206;-91
2021/10/07 04:13:47;;;;;;;21.45;11.23;;;;;;;;;;4855315;29;20328;-90
2021/10/07 04:16:58;;;;;;;17.40;9.93;;;;;;;;;;4837371;29;20199;-91
2021/10/07 04:20:10;;;;;;;20.48;10.35;;;;;;;;;;4856362;29;20202;-90
2021/10/07 04:23:23;;;;;;;18.35;10.25;;;;;;;;;;4853751;29;20207;-91
2021/10/07 04:26:35;;;;;;;18.30;10.23;;;;;;;;;;4848526;29;20234;-90
2021/10/07 04:29:47;;;;;;;17.55;10.48;;;;;;;;;;4855398;29;20266;-91
2021/10/07 04:32:59;;;;;;;19.52;10.40;;;;;;;;;;4852452;29;20238;-90
2021/10/07 04:36:11;;;;;;;19.38;10.63;;;;;;;;;;4836804;29;20663;-91
2021/10/07 04:39:25;;;;;;;18.70;10.43;;;;;;;;;;4837568;29;20188;-91
2021/10/07 04:42:37;;;;;;;19.67;10.85;;;;;;;;;;4837891;29;20215;-91
2021/10/07 04:45:49;;;;;;;19.63;9.95;;;;;;;;;;4840411;29;20215;-91
2021/10/07 04:49:00;;;;;;;20.70;10.50;;;;;;;;;;4848211;29;20725;-92
2021/10/07 04:52:13;;;;;;;24.48;11.02;;;;;;;;;;4842454;29;20199;-90
2021/10/07 04:55:27;;;;;;;22.52;11.63;;;;;;;;;;4837355;29;20228;-89
2021/10/07 04:58:38;;;;;;;19.88;10.70;;;;;;;;;;4848389;29;20230;-89
2021/10/07 05:01:50;;;;;;;23.00;11.23;;;;;;;;;;4856627;29;20190;-91
2021/10/07 05:05:02;;;;;;;19.60;10.75;;;;;;;;;;4839673;29;20241;-91
2021/10/07 05:08:14;;;;;;;17.50;9.73;;;;;;;;;;4839087;29;20251;-91
2021/10/07 05:11:27;;;;;;;20.23;9.73;;;;;;;;;;4837597;29;20195;-91
2021/10/07 05:14:42;;;;;;;18.95;8.98;;;;;;;;;;4838234;29;20192;-93
2021/10/07 05:17:54;;;;;;;17.50;9.82;;;;;;;;;;4839426;29;20203;-92
2021/10/07 05:21:06;;;;;;;21.13;9.77;;;;;;;;;;4838189;29;20679;-92
2021/10/07 05:24:19;;;;;;;18.70;10.05;;;;;;;;;;4851732;29;20278;-91
2021/10/07 05:27:32;;;;;;;21.73;9.25;;;;;;;;;;4855751;29;20321;-92
2021/10/07 05:30:45;;;;;;;17.55;9.30;;;;;;;;;;4850806;29;20569;-93
